Time;durP1;ratioP1;P1;durP2;ratioP2;P2;SDS_P1;SDS_P2;PMS_P1;PMS_P2;Temp;Humidity;BMP_temperature;BMP_pressure;BME280_temperature;BME280_humidity;BME280_pressure;Samples;Min_cycle;Max_cycle;Signal;HPM_P1;HPM_P2
2021/05/31 00:02:22;;;;;;;1.48;0.68;;;;;;;;;;3597344;39;20392;-71
2021/05/31 00:04:49;;;;;;;0.80;0.67;;;;;;;;;;3599601;39;20375;-71
2021/05/31 00:07:19;;;;;;;1.60;0.80;;;;;;;;;;3601785;39;20367;-71
2021/05/31 00:09:47;;;;;;;1.83;0.82;;;;;;;;;;3597335;39;20454;-71
2021/05/31 00:12:14;;;;;;;0.73;0.70;;;;;;;;;;3601734;39;20475;-71
2021/05/31 00:14:41;;;;;;;0.70;0.60;;;;;;;;;;3593368;39;20383;-71
2021/05/31 00:17:07;;;;;;;1.58;0.80;;;;;;;;;;3598585;39;20402;-71
2021/05/31 00:19:33;;;;;;;2.88;0.90;;;;;;;;;;3592297;39;20470;-71
2021/05/31 00:22:00;;;;;;;1.30;1.13;;;;;;;;;;3596682;39;20769;-71
2021/05/31 00:24:26;;;;;;;3.67;0.95;;;;;;;;;;3600282;39;20370;-71
2021/05/31 00:26:53;;;;;;;1.77;0.90;;;;;;;;;;3593408;39;20382;-71
2021/05/31 00:29:21;;;;;;;1.30;0.90;;;;;;;;;;3593188;39;20376;-70
2021/05/31 00:31:47;;;;;;;0.90;0.90;;;;;;;;;;3597221;39;20392;-71
2021/05/31 00:34:14;;;;;;;1.20;1.10;;;;;;;;;;3597125;39;20380;-71
2021/05/31 00:36:40;;;;;;;1.23;1.08;;;;;;;;;;3595128;39;20401;-71
2021/05/31 00:39:06;;;;;;;1.92;1.40;;;;;;;;;;3595776;39;20397;-71
2021/05/31 00:41:32;;;;;;;1.08;0.85;;;19.20;90.70;;;;;;3595889;39;20412;-71
2021/05/31 00:43:59;;;;;;;1.40;0.93;;;18.80;93.80;;;;;;3585510;40;20381;-71
2021/05/31 00:46:25;;;;;;;1.60;0.85;;;18.80;93.80;;;;;;3593892;39;20389;-71
2021/05/31 00:48:51;;;;;;;2.22;1.10;;;18.80;93.80;;;;;;3597258;39;20755;-71
2021/05/31 00:51:18;;;;;;;1.20;1.08;;;18.80;94.20;;;;;;3597169;39;20377;-71
2021/05/31 00:53:45;;;;;;;1.48;1.02;;;18.70;94.30;;;;;;3593802;39;20409;-71
2021/05/31 00:56:11;;;;;;;2.17;1.27;;;;;;;;;;3597417;39;20380;-71
2021/05/31 00:58:37;;;;;;;2.05;1.15;;;;;;;;;;3593554;39;20605;-70
2021/05/31 01:01:05;;;;;;;3.05;1.80;;;;;;;;;;3592691;39;20404;-71
2021/05/31 01:03:32;;;;;;;2.20;1.80;;;;;;;;;;3595022;39;20396;-71
2021/05/31 01:06:01;;;;;;;3.80;1.88;;;;;;;;;;3600180;39;20396;-70
2021/05/31 01:08:32;;;;;;;2.57;2.23;;;;;;;;;;3597127;39;20417;-70
2021/05/31 01:11:02;;;;;;;3.88;2.65;;;18.70;94.50;;;;;;3593853;39;20368;-71
2021/05/31 01:13:32;;;;;;;4.88;3.55;;;;;;;;;;3590825;39;20390;-70
2021/05/31 01:16:03;;;;;;;4.75;4.25;;;;;;;;;;3602810;39;20365;-71
2021/05/31 01:18:32;;;;;;;4.70;3.85;;;;;;;;;;3596540;39;20432;-71
2021/05/31 01:21:03;;;;;;;4.40;3.88;;;;;;;;;;3590559;39;20381;-71
2021/05/31 01:23:31;;;;;;;5.43;4.00;;;;;;;;;;3589949;39;20362;-71
2021/05/31 01:26:03;;;;;;;4.00;3.60;;;;;;;;;;3595507;39;20763;-71
2021/05/31 01:28:47;;;;;;;5.38;3.90;;;;;;;;;;3593678;39;20357;-71
2021/05/31 01:31:16;;;;;;;3.58;3.20;;;;;;;;;;3593771;39;20363;-71
2021/05/31 01:33:42;;;;;;;4.55;3.97;;;;;;;;;;3591531;39;20386;-71
2021/05/31 01:36:09;;;;;;;4.45;3.97;;;;;;;;;;3594973;39;20382;-71
2021/05/31 01:38:37;;;;;;;3.83;3.53;;;;;;;;;;3598861;39;20384;-71
2021/05/31 01:41:04;;;;;;;4.75;4.35;;;;;;;;;;3596097;39;20375;-71
2021/05/31 01:43:31;;;;;;;5.28;4.80;;;;;;;;;;3596818;39;20377;-71
2021/05/31 01:46:00;;;;;;;5.57;4.90;;;;;;;;;;3594524;39;20380;-71
2021/05/31 01:48:27;;;;;;;5.88;5.28;;;;;;;;;;3599201;39;20360;-71
2021/05/31 01:50:54;;;;;;;6.20;5.50;;;;;;;;;;3597113;39;20716;-71
2021/05/31 01:53:20;;;;;;;5.82;5.32;;;;;;;;;;3596634;39;20642;-71
2021/05/31 01:55:48;;;;;;;5.70;5.20;;;;;;;;;;3587242;39;20400;-71
2021/05/31 01:58:15;;;;;;;5.37;4.87;;;;;;;;;;3591900;39;20413;-71
2021/05/31 02:00:41;;;;;;;7.32;4.88;;;;;;;;;;3596754;39;20377;-71
2021/05/31 02:03:08;;;;;;;4.50;4.10;;;;;;;;;;3596678;39;20823;-71
2021/05/31 02:05:35;;;;;;;5.13;4.63;;;;;;;;;;3591416;39;20778;-70
2021/05/31 02:08:03;;;;;;;5.95;5.45;;;;;;;;;;3594539;39;20404;-70
2021/05/31 02:10:29;;;;;;;7.90;5.80;;;;;;;;;;3587471;40;20388;-70
2021/05/31 02:12:56;;;;;;;6.00;5.50;;;;;;;;;;3596960;39;20638;-71
2021/05/31 02:15:24;;;;;;;5.35;4.95;;;;;;;;;;3596748;39;20376;-71
2021/05/31 02:17:55;;;;;;;6.43;5.55;;;;;;;;;;3596783;39;20400;-70
2021/05/31 02:20:22;;;;;;;4.55;4.22;;;;;;;;;;3596952;39;20480;-68
2021/05/31 02:22:54;;;;;;;4.80;4.40;;;15.20;99.90;;;;;;3592700;39;20370;-71
2021/05/31 02:25:21;;;;;;;5.88;4.40;;;15.50;99.90;;;;;;3595564;39;20364;-71
2021/05/31 02:27:48;;;;;;;5.38;4.88;;;15.60;99.90;;;;;;3596065;39;20370;-71
2021/05/31 02:30:18;;;;;;;5.80;5.22;;;15.70;99.90;;;;;;3579222;40;20405;-72
2021/05/31 02:32:52;;;;;;;4.28;3.88;;;15.70;99.90;;;;;;3590614;39;20480;-72
2021/05/31 02:35:18;;;;;;;4.18;3.78;;;;;;;;;;3593626;39;20721;-72
2021/05/31 02:37:45;;;;;;;4.65;3.70;;;;;;;;;;3598433;39;20391;-71
2021/05/31 02:40:13;;;;;;;4.93;3.90;;;;;;;;;;3596477;39;20384;-71
2021/05/31 02:42:39;;;;;;;5.18;4.68;;;;;;;;;;3596451;39;20381;-71
2021/05/31 02:45:06;;;;;;;3.70;3.40;;;;;;;;;;3591744;40;20388;-72
2021/05/31 02:47:32;;;;;;;5.95;5.45;;;;;;;;;;3596507;39;20383;-72
2021/05/31 02:49:58;;;;;;;5.05;4.60;;;;;;;;;;3599572;39;20382;-72
2021/05/31 02:52:25;;;;;;;6.30;4.00;;;;;;;;;;3593606;39;20371;-71
2021/05/31 02:54:51;;;;;;;4.10;3.80;;;;;;;;;;3595523;39;20388;-72
2021/05/31 02:57:19;;;;;;;3.83;3.53;;;;;;;;;;3592900;39;20401;-72
2021/05/31 02:59:45;;;;;;;4.07;3.67;;;;;;;;;;3596327;39;20376;-71
2021/05/31 03:02:11;;;;;;;4.72;4.18;;;;;;;;;;3596920;39;20791;-72
2021/05/31 03:04:38;;;;;;;4.90;4.20;;;;;;;;;;3593198;39;20405;-72
2021/05/31 03:07:04;;;;;;;4.57;4.18;;;;;;;;;;3593190;39;20361;-72
2021/05/31 03:09:30;;;;;;;6.88;5.35;;;;;;;;;;3601375;39;20452;-71
2021/05/31 03:11:57;;;;;;;4.82;4.28;;;;;;;;;;3596661;39;20390;-72
2021/05/31 03:14:24;;;;;;;6.07;5.57;;;;;;;;;;3592487;39;20372;-72
2021/05/31 03:16:50;;;;;;;6.47;5.90;;;;;;;;;;3597997;39;20404;-72
2021/05/31 03:19:17;;;;;;;7.07;6.38;;;;;;;;;;3585112;40;20394;-72
2021/05/31 03:21:43;;;;;;;7.67;6.47;;;;;;;;;;3588108;39;20374;-72
2021/05/31 03:24:09;;;;;;;5.57;5.07;;;;;;;;;;3596840;39;20420;-72
2021/05/31 03:26:35;;;;;;;6.82;6.13;;;15.70;99.90;;;;;;3594209;39;20369;-72
2021/05/31 03:29:01;;;;;;;5.18;4.45;;;15.80;99.90;;;;;;3598765;39;20428;-72
2021/05/31 03:31:28;;;;;;;5.47;5.07;;;15.70;99.90;;;;;;3592771;39;20404;-72
2021/05/31 03:33:54;;;;;;;7.20;6.50;;;15.80;99.90;;;;;;3590772;39;20572;-72
2021/05/31 03:36:20;;;;;;;7.10;6.50;;;15.90;99.90;;;;;;3585399;39;20399;-72
2021/05/31 03:38:45;;;;;;;7.40;6.70;;;15.70;99.90;;;;;;3600910;39;20384;-71
2021/05/31 03:41:12;;;;;;;6.73;6.07;;;;;;;;;;3586418;39;20482;-72
2021/05/31 03:43:38;;;;;;;5.50;5.03;;;;;;;;;;3596046;39;20368;-72
2021/05/31 03:46:04;;;;;;;5.15;4.75;;;;;;;;;;3597968;39;20379;-71
2021/05/31 03:48:31;;;;;;;6.20;4.55;;;;;;;;;;3597831;39;20392;-72
2021/05/31 03:51:08;;;;;;;4.80;4.40;;;;;;;;;;3598064;39;20385;-72
2021/05/31 03:53:35;;;;;;;5.50;5.00;;;;;;;;;;3578054;40;20380;-71
2021/05/31 03:56:01;;;;;;;6.90;6.20;;;;;;;;;;3578329;40;20392;-72
2021/05/31 03:58:27;;;;;;;7.32;6.55;;;;;;;;;;3575895;40;20412;-71
2021/05/31 04:00:53;;;;;;;6.57;5.95;;;;;;;;;;3575881;40;20394;-71
2021/05/31 04:03:19;;;;;;;7.07;6.38;;;;;;;;;;3576289;40;20427;-71
2021/05/31 04:11:41;;;;;;;9.20;6.15;;;15.50;99.90;;;;;;3566263;40;20380;-72
2021/05/31 04:14:08;;;;;;;7.60;6.75;;;15.60;99.90;;;;;;3559679;40;20382;-71
2021/05/31 04:16:36;;;;;;;7.60;6.90;;;15.40;99.90;;;;;;3565817;40;20448;-71
2021/05/31 04:19:03;;;;;;;8.63;7.82;;;;;;;;;;3565833;40;20401;-71
2021/05/31 04:21:31;;;;;;;7.80;7.10;;;14.80;99.90;;;;;;3565535;40;20437;-71
2021/05/31 04:23:57;;;;;;;9.32;8.32;;;14.80;99.90;;;;;;3569958;40;20476;-70
2021/05/31 04:26:23;;;;;;;7.57;6.78;;;14.80;99.90;;;;;;3574743;40;20798;-71
2021/05/31 04:28:49;;;;;;;8.65;6.80;;;14.80;99.90;;;;;;3584386;40;20470;-72
2021/05/31 04:31:16;;;;;;;7.57;6.97;;;14.90;99.90;;;;;;3576746;40;20380;-71
2021/05/31 04:33:42;;;;;;;7.28;6.03;;;14.80;99.90;;;;;;3574977;40;20820;-71
2021/05/31 04:36:08;;;;;;;4.88;4.38;;;15.00;99.90;;;;;;3572803;40;20374;-71
2021/05/31 04:38:35;;;;;;;4.70;4.30;;;15.10;99.90;;;;;;3579288;40;20422;-71
2021/05/31 04:41:02;;;;;;;4.68;4.28;;;;;;;;;;3574295;40;20378;-72
2021/05/31 04:43:29;;;;;;;4.85;4.40;;;;;;;;;;3577140;40;20383;-71
2021/05/31 04:45:55;;;;;;;5.38;4.97;;;;;;;;;;3574231;40;20379;-71
2021/05/31 04:48:21;;;;;;;5.47;4.97;;;15.30;99.90;;;;;;3581806;40;20386;-71
2021/05/31 04:50:47;;;;;;;5.95;5.45;;;15.10;99.90;;;;;;3577979;40;20497;-71
2021/05/31 04:53:13;;;;;;;4.53;4.13;;;15.10;99.90;;;;;;3580632;40;20384;-71
2021/05/31 04:55:41;;;;;;;6.25;5.68;;;15.10;99.90;;;;;;3575685;40;20728;-71
2021/05/31 04:58:07;;;;;;;4.93;4.45;;;15.10;99.90;;;;;;3576808;40;20404;-71
2021/05/31 05:00:33;;;;;;;4.70;4.20;;;15.20;99.90;;;;;;3580795;40;20528;-71
2021/05/31 05:02:59;;;;;;;3.38;2.90;;;15.40;99.90;;;;;;3576167;40;20482;-71
2021/05/31 05:05:25;;;;;;;3.30;3.00;;;15.50;99.90;;;;;;3574532;40;20618;-71
2021/05/31 05:07:51;;;;;;;4.13;3.73;;;15.20;99.90;;;;;;3577902;40;20762;-71
2021/05/31 05:10:18;;;;;;;3.70;3.40;;;;;;;;;;3577909;40;20456;-71
2021/05/31 05:12:46;;;;;;;4.15;3.85;;;;;;;;;;3582249;40;20368;-71
2021/05/31 05:15:15;;;;;;;3.57;3.20;;;;;;;;;;3577559;40;21362;-71
2021/05/31 05:17:41;;;;;;;4.47;4.10;;;;;;;;;;3591180;40;20385;-71
2021/05/31 05:20:08;;;;;;;4.20;3.58;;;;;;;;;;3586106;40;20626;-71
2021/05/31 05:22:34;;;;;;;3.50;2.83;;;;;;;;;;3583134;40;20366;-72
2021/05/31 05:25:00;;;;;;;3.90;3.30;;;;;;;;;;3584338;40;20706;-71
2021/05/31 05:27:26;;;;;;;3.42;3.20;;;;;;;;;;3584819;40;20520;-71
2021/05/31 05:29:54;;;;;;;4.00;3.60;;;;;;;;;;3582524;40;20723;-71
2021/05/31 05:32:21;;;;;;;2.80;2.33;;;;;;;;;;3584779;40;20386;-71
2021/05/31 05:34:48;;;;;;;2.70;1.60;;;;;;;;;;3586993;40;20382;-71
2021/05/31 05:37:18;;;;;;;1.42;0.70;;;;;;;;;;3582461;40;20416;-71
2021/05/31 05:50:02;;;;;;;1.15;0.80;;;16.00;99.90;;;;;;3580150;40;20385;-71
2021/05/31 05:52:28;;;;;;;1.45;1.15;;;15.90;99.90;;;;;;3586726;40;20640;-71
2021/05/31 05:54:54;;;;;;;1.95;0.90;;;15.90;99.90;;;;;;3586631;40;20394;-71
2021/05/31 05:57:20;;;;;;;2.15;1.58;;;16.00;99.90;;;;;;3584739;40;20417;-71
2021/05/31 05:59:46;;;;;;;1.33;0.70;;;15.90;99.90;;;;;;3585059;40;20374;-71
2021/05/31 06:02:12;;;;;;;1.30;0.65;;;16.10;99.90;;;;;;3594290;39;20402;-71
2021/05/31 06:04:41;;;;;;;1.33;0.70;;;16.20;99.90;;;;;;3586859;40;20382;-71
2021/05/31 06:07:07;;;;;;;1.07;0.70;;;;;;;;;;3586827;40;20374;-71
2021/05/31 06:09:33;;;;;;;0.57;0.55;;;16.30;99.90;;;;;;3597241;39;20454;-71
2021/05/31 06:11:59;;;;;;;0.90;0.55;;;;;;;;;;3577496;40;20398;-71
2021/05/31 06:14:25;;;;;;;1.75;0.80;;;;;;;;;;3591533;39;20385;-70
2021/05/31 06:16:52;;;;;;;1.38;0.77;;;;;;;;;;3589213;39;20411;-70
2021/05/31 06:19:18;;;;;;;2.03;1.55;;;;;;;;;;3592690;39;20393;-70
2021/05/31 06:21:45;;;;;;;2.00;1.77;;;;;;;;;;3593496;39;20387;-70
2021/05/31 06:24:12;;;;;;;2.80;1.85;;;;;;;;;;3597040;39;20393;-70
2021/05/31 06:26:38;;;;;;;3.08;2.78;;;;;;;;;;3573671;40;20436;-71
2021/05/31 06:29:05;;;;;;;2.90;2.70;;;;;;;;;;3595546;39;20378;-71
2021/05/31 06:31:30;;;;;;;3.40;2.13;;;16.10;99.90;;;;;;3600150;39;20501;-71
2021/05/31 06:33:56;;;;;;;1.92;1.70;;;16.10;99.90;;;;;;3597712;39;20414;-71
2021/05/31 06:36:23;;;;;;;2.65;2.45;;;16.10;99.90;;;;;;3590999;39;20365;-72
2021/05/31 06:38:50;;;;;;;4.90;2.78;;;16.10;99.90;;;;;;3598029;39;20408;-71
2021/05/31 06:41:16;;;;;;;2.67;2.47;;;16.20;99.90;;;;;;3590522;39;20394;-71
2021/05/31 06:43:42;;;;;;;3.30;3.00;;;16.30;99.90;;;;;;3596039;39;20388;-71
2021/05/31 06:46:08;;;;;;;2.63;2.33;;;16.40;99.90;;;;;;3599580;39;20375;-71
2021/05/31 06:48:34;;;;;;;1.70;1.60;;;16.40;99.90;;;;;;3592339;39;20456;-71
2021/05/31 06:51:01;;;;;;;2.22;1.90;;;;;;;;;;3584720;39;20447;-71
2021/05/31 06:53:27;;;;;;;1.77;1.40;;;;;;;;;;3595535;39;20458;-71
2021/05/31 06:55:55;;;;;;;2.28;1.92;;;;;;;;;;3595877;39;20462;-71
2021/05/31 06:58:21;;;;;;;1.42;1.30;;;;;;;;;;3598215;39;20703;-71
2021/05/31 07:00:48;;;;;;;2.20;1.58;;;;;;;;;;3597978;39;20361;-72
2021/05/31 07:03:14;;;;;;;1.90;1.35;;;;;;;;;;3582935;40;20428;-71
2021/05/31 07:05:40;;;;;;;2.90;1.63;;;;;;;;;;3582812;40;20413;-71
2021/05/31 07:08:06;;;;;;;2.75;1.55;;;;;;;;;;3591912;39;20778;-71
2021/05/31 07:10:33;;;;;;;2.58;1.73;;;;;;;;;;3599855;39;20373;-71
2021/05/31 07:13:02;;;;;;;2.22;1.15;;;;;;;;;;3598043;39;20629;-71
2021/05/31 07:15:29;;;;;;;1.90;1.00;;;;;;;;;;3597858;39;20442;-71
2021/05/31 07:17:55;;;;;;;1.90;0.90;;;;;;;;;;3597780;39;20514;-70
2021/05/31 07:20:21;;;;;;;0.63;0.60;;;;;;;;;;3582385;39;20462;-70
2021/05/31 07:22:48;;;;;;;1.27;0.70;;;;;;;;;;3590126;40;20382;-71
2021/05/31 07:25:15;;;;;;;2.33;0.73;;;;;;;;;;3594847;39;20369;-71
2021/05/31 07:27:41;;;;;;;1.67;0.60;;;;;;;;;;3599969;39;20798;-71
2021/05/31 07:30:09;;;;;;;2.58;1.00;;;;;;;;;;3595752;39;20382;-71
2021/05/31 07:32:37;;;;;;;1.00;0.70;;;;;;;;;;3592397;39;20460;-70
2021/05/31 07:35:03;;;;;;;1.42;0.75;;;;;;;;;;3597941;39;20371;-70
2021/05/31 07:37:29;;;;;;;3.15;1.27;;;;;;;;;;3601152;39;20765;-70
2021/05/31 07:39:55;;;;;;;1.50;1.00;;;;;;;;;;3589003;40;20400;-71
2021/05/31 07:42:21;;;;;;;1.30;0.90;;;;;;;;;;3597703;39;20444;-71
2021/05/31 07:44:48;;;;;;;1.08;0.75;;;;;;;;;;3596059;39;20377;-71
2021/05/31 07:47:15;;;;;;;0.65;0.57;;;;;;;;;;3589905;39;20378;-71
2021/05/31 07:49:41;;;;;;;2.55;0.88;;;;;;;;;;3598190;39;20379;-71
2021/05/31 07:52:18;;;;;;;1.65;0.70;;;;;;;;;;3601826;39;20368;-71
2021/05/31 07:54:44;;;;;;;0.93;0.57;;;;;;;;;;3598148;39;20858;-71
2021/05/31 07:57:10;;;;;;;1.92;0.70;;;;;;;;;;3600576;39;20756;-71
2021/05/31 07:59:36;;;;;;;1.33;0.77;;;;;;;;;;3594550;39;20393;-70
2021/05/31 08:02:03;;;;;;;2.00;0.70;;;;;;;;;;3597223;39;20452;-71
2021/05/31 08:04:30;;;;;;;1.40;0.90;;;16.60;99.90;;;;;;3598499;39;20462;-71
2021/05/31 08:06:59;;;;;;;1.10;0.50;;;18.40;95.40;;;;;;3594752;39;20378;-71
2021/05/31 08:09:25;;;;;;;1.27;0.40;;;18.20;94.10;;;;;;3585005;40;20505;-70
2021/05/31 08:11:51;;;;;;;1.20;0.60;;;18.30;94.60;;;;;;3597505;39;20424;-71
2021/05/31 08:14:17;;;;;;;1.07;0.70;;;18.40;94.00;;;;;;3593030;39;20397;-70
2021/05/31 08:16:43;;;;;;;0.68;0.50;;;;;;;;;;3587360;39;20455;-71
2021/05/31 08:19:09;;;;;;;1.30;0.60;;;;;;;;;;3597313;39;20391;-70
2021/05/31 08:21:37;;;;;;;0.80;0.60;;;18.10;94.40;;;;;;3590950;39;20366;-71
2021/05/31 08:24:03;;;;;;;1.25;0.80;;;;;;;;;;3586723;40;20392;-71
2021/05/31 08:26:30;;;;;;;0.90;0.65;;;;;;;;;;3591126;39;20369;-71
2021/05/31 08:28:56;;;;;;;1.55;0.80;;;;;;;;;;3596825;39;20363;-71
2021/05/31 08:31:22;;;;;;;2.40;0.70;;;;;;;;;;3600741;39;20375;-71
2021/05/31 08:33:49;;;;;;;0.80;0.60;;;;;;;;;;3604355;39;20369;-70
2021/05/31 08:36:17;;;;;;;1.75;0.85;;;;;;;;;;3598039;39;20368;-70
2021/05/31 08:38:44;;;;;;;2.22;0.68;;;;;;;;;;3597348;39;20735;-71
2021/05/31 08:41:10;;;;;;;0.98;0.70;;;;;;;;;;3599324;39;20393;-71
2021/05/31 08:43:37;;;;;;;1.83;0.70;;;;;;;;;;3599175;39;20374;-71
2021/05/31 08:46:03;;;;;;;2.38;0.85;;;;;;;;;;3598516;39;20450;-70
2021/05/31 08:48:29;;;;;;;1.40;0.70;;;;;;;;;;3599376;39;20380;-70
2021/05/31 08:50:55;;;;;;;2.28;0.60;;;;;;;;;;3596149;39;20408;-72
2021/05/31 08:53:21;;;;;;;1.60;0.65;;;;;;;;;;3598238;39;20387;-71
2021/05/31 08:55:49;;;;;;;1.67;0.70;;;;;;;;;;3590421;39;20374;-70
2021/05/31 08:58:15;;;;;;;1.23;0.50;;;;;;;;;;3602434;39;20404;-70
2021/05/31 09:00:42;;;;;;;1.85;0.57;;;;;;;;;;3597010;39;20388;-71
2021/05/31 09:03:09;;;;;;;0.50;0.45;;;;;;;;;;3597296;39;20792;-71
2021/05/31 09:05:37;;;;;;;0.93;0.40;;;;;;;;;;3587905;40;20448;-71
2021/05/31 09:08:04;;;;;;;1.50;0.50;;;20.20;95.70;;;;;;3597090;39;20428;-71
2021/05/31 09:10:34;;;;;;;2.30;0.63;;;;;;;;;;3599310;39;20680;-71
2021/05/31 09:13:03;;;;;;;1.00;0.70;;;;;;;;;;3597339;39;20379;-71
2021/05/31 09:15:29;;;;;;;1.75;0.63;;;;;;;;;;3590174;39;20384;-71
2021/05/31 09:17:55;;;;;;;1.70;0.70;;;;;;;;;;3597194;39;20392;-71
2021/05/31 09:20:22;;;;;;;1.88;0.60;;;;;;;;;;3596935;39;20466;-71
2021/05/31 09:22:50;;;;;;;1.20;0.50;;;21.30;87.00;;;;;;3596991;39;20373;-71
2021/05/31 09:25:30;;;;;;;2.28;1.00;;;20.80;87.30;;;;;;3597012;39;20392;-71
2021/05/31 09:27:57;;;;;;;1.42;0.80;;;;;;;;;;3597161;39;20465;-71
2021/05/31 09:30:35;;;;;;;1.10;0.60;;;;;;;;;;3596781;39;20786;-71
2021/05/31 09:33:01;;;;;;;2.40;0.80;;;;;;;;;;3597233;39;20385;-70
2021/05/31 09:35:27;;;;;;;2.40;0.63;;;;;;;;;;3594988;39;20392;-71
2021/05/31 09:37:53;;;;;;;1.38;0.60;;;;;;;;;;3595903;39;20393;-71
2021/05/31 09:40:21;;;;;;;4.32;0.75;;;;;;;;;;3597081;39;20377;-71
2021/05/31 09:42:48;;;;;;;1.02;0.40;;;;;;;;;;3603952;39;20380;-71
2021/05/31 09:45:14;;;;;;;1.10;0.43;;;;;;;;;;3597032;39;20393;-71
2021/05/31 09:47:42;;;;;;;1.00;0.50;;;;;;;;;;3597151;39;20378;-71
2021/05/31 09:50:09;;;;;;;1.10;0.50;;;;;;;;;;3593806;39;20377;-71
2021/05/31 09:52:36;;;;;;;1.20;0.40;;;;;;;;;;3590056;39;20382;-71
2021/05/31 09:55:03;;;;;;;0.90;0.40;;;;;;;;;;3593651;39;20448;-71
2021/05/31 09:57:31;;;;;;;0.47;0.35;;;;;;;;;;3594244;39;20381;-71
2021/05/31 10:00:02;;;;;;;1.10;0.60;;;;;;;;;;3587327;40;20623;-71
2021/05/31 10:02:37;;;;;;;1.55;0.50;;;;;;;;;;3585759;40;20404;-71
2021/05/31 10:09:59;;;;;;;1.08;0.68;;;;;;;;;;3589764;39;20450;-71
2021/05/31 10:12:26;;;;;;;0.60;0.40;;;21.10;88.40;;;;;;3590151;40;20446;-71
2021/05/31 10:14:52;;;;;;;0.90;0.52;;;22.00;75.90;;;;;;3597018;39;20396;-71
2021/05/31 10:17:23;;;;;;;1.00;0.50;;;22.00;78.40;;;;;;3603762;39;20411;-71
2021/05/31 10:19:49;;;;;;;1.33;0.70;;;22.20;74.90;;;;;;3593441;39;20667;-71
2021/05/31 10:22:17;;;;;;;0.70;0.50;;;22.10;72.70;;;;;;3601642;39;20649;-71
2021/05/31 10:24:44;;;;;;;1.02;0.45;;;21.90;74.50;;;;;;3596813;39;20782;-71
2021/05/31 10:27:13;;;;;;;0.80;0.50;;;22.30;73.20;;;;;;3591705;39;20389;-71
2021/05/31 10:29:41;;;;;;;1.30;0.68;;;22.40;76.50;;;;;;3596573;39;20471;-71
2021/05/31 10:32:09;;;;;;;2.25;0.95;;;22.20;76.10;;;;;;3596068;39;20633;-71
2021/05/31 10:34:44;;;;;;;0.88;0.65;;;22.10;78.80;;;;;;3595609;39;20406;-71
2021/05/31 10:37:18;;;;;;;1.00;0.60;;;;;;;;;;3596197;39;20388;-71
2021/05/31 10:39:44;;;;;;;0.80;0.77;;;21.90;75.50;;;;;;3593720;39;20375;-71
2021/05/31 10:42:11;;;;;;;3.55;0.80;;;21.60;74.50;;;;;;3586622;39;20430;-71
2021/05/31 10:44:37;;;;;;;1.30;0.60;;;21.70;77.70;;;;;;3594613;39;20387;-71
2021/05/31 10:47:07;;;;;;;0.88;0.70;;;;;;;;;;3594462;39;20377;-71
2021/05/31 10:49:33;;;;;;;1.27;0.90;;;;;;;;;;3596120;39;20384;-71
2021/05/31 10:51:59;;;;;;;1.20;0.90;;;22.10;75.00;;;;;;3593024;39;20383;-71
2021/05/31 10:54:34;;;;;;;1.27;0.70;;;22.90;75.50;;;;;;3594640;39;20404;-71
2021/05/31 10:57:05;;;;;;;1.05;0.80;;;23.10;73.20;;;;;;3583019;40;20738;-72
2021/05/31 10:59:31;;;;;;;1.00;0.90;;;23.20;74.70;;;;;;3589729;39;20388;-71
2021/05/31 11:01:59;;;;;;;1.60;0.80;;;;;;;;;;3594080;39;20407;-71
2021/05/31 11:04:26;;;;;;;1.50;1.10;;;;;;;;;;3590234;39;20394;-71
2021/05/31 11:06:53;;;;;;;1.60;1.17;;;;;;;;;;3589776;39;20388;-71
2021/05/31 11:09:20;;;;;;;1.00;0.90;;;;;;;;;;3590809;40;21143;-71
2021/05/31 11:11:49;;;;;;;1.40;1.00;;;;;;;;;;3593313;39;20421;-71
2021/05/31 11:14:17;;;;;;;1.38;0.93;;;23.50;71.70;;;;;;3594601;39;20375;-71
2021/05/31 11:16:53;;;;;;;1.08;0.90;;;;;;;;;;3593158;39;20439;-72
2021/05/31 11:19:30;;;;;;;0.98;0.80;;;;;;;;;;3591651;39;20360;-71
2021/05/31 11:21:56;;;;;;;1.73;0.80;;;;;;;;;;3592212;39;20739;-71
2021/05/31 11:24:22;;;;;;;1.02;0.70;;;;;;;;;;3590983;39;20372;-71
2021/05/31 11:26:50;;;;;;;1.27;0.88;;;;;;;;;;3594116;39;20385;-71
2021/05/31 11:29:16;;;;;;;2.08;0.90;;;;;;;;;;3588825;40;20408;-72
2021/05/31 11:31:44;;;;;;;1.85;0.93;;;22.80;72.50;;;;;;3591727;39;20353;-71
2021/05/31 11:34:11;;;;;;;2.47;0.90;;;;;;;;;;3594146;39;20382;-72
2021/05/31 11:36:38;;;;;;;1.60;0.80;;;;;;;;;;3593357;39;20380;-72
2021/05/31 11:39:06;;;;;;;1.52;0.70;;;;;;;;;;3594420;39;20770;-71
2021/05/31 11:41:35;;;;;;;1.20;1.10;;;;;;;;;;3596396;40;20383;-71
2021/05/31 11:44:03;;;;;;;2.13;0.90;;;;;;;;;;3597818;39;20373;-72
2021/05/31 11:46:29;;;;;;;1.35;0.98;;;;;;;;;;3597707;40;20435;-72
2021/05/31 11:49:00;;;;;;;1.52;0.90;;;;;;;;;;3596479;39;20380;-72
2021/05/31 11:51:27;;;;;;;1.98;0.80;;;;;;;;;;3594887;39;20368;-72
2021/05/31 11:53:53;;;;;;;1.80;1.13;;;;;;;;;;3592039;40;20369;-72
2021/05/31 11:56:30;;;;;;;1.40;1.23;;;;;;;;;;3594429;39;20376;-71
2021/05/31 11:58:56;;;;;;;1.40;1.20;;;;;;;;;;3596047;39;20655;-72
2021/05/31 12:01:23;;;;;;;2.03;1.80;;;;;;;;;;3586827;40;20410;-72
2021/05/31 12:03:49;;;;;;;1.75;1.25;;;;;;;;;;3596182;39;20836;-72
2021/05/31 12:06:16;;;;;;;3.22;1.30;;;;;;;;;;3595465;39;20645;-72
2021/05/31 12:08:42;;;;;;;1.52;1.25;;;;;;;;;;3596933;39;20408;-72
2021/05/31 12:11:08;;;;;;;1.60;1.33;;;;;;;;;;3595786;39;20458;-72
2021/05/31 12:13:34;;;;;;;1.50;0.85;;;;;;;;;;3591135;39;20410;-71
2021/05/31 12:16:11;;;;;;;2.03;1.57;;;;;;;;;;3590035;39;20476;-72
2021/05/31 12:18:39;;;;;;;2.15;1.20;;;;;;;;;;3591343;39;20374;-72
2021/05/31 12:21:05;;;;;;;1.60;0.90;;;;;;;;;;3592890;39;20378;-72
2021/05/31 12:23:31;;;;;;;1.70;1.30;;;;;;;;;;3593471;39;20386;-71
2021/05/31 12:25:59;;;;;;;2.60;1.10;;;;;;;;;;3585051;40;20379;-72
2021/05/31 12:28:29;;;;;;;1.50;1.40;;;;;;;;;;3593834;39;20394;-72
2021/05/31 12:30:55;;;;;;;2.80;1.45;;;;;;;;;;3594552;39;20373;-72
2021/05/31 12:33:22;;;;;;;1.80;1.20;;;;;;;;;;3586154;40;20798;-72
2021/05/31 12:35:50;;;;;;;1.75;1.10;;;;;;;;;;3596183;39;20836;-71
2021/05/31 12:38:18;;;;;;;1.70;1.02;;;;;;;;;;3597463;39;20412;-71
2021/05/31 12:40:44;;;;;;;1.77;1.17;;;;;;;;;;3604831;39;20748;-71
2021/05/31 12:43:11;;;;;;;2.03;1.48;;;;;;;;;;3600279;39;20391;-71
2021/05/31 12:45:47;;;;;;;1.92;1.10;;;;;;;;;;3594934;39;20365;-72
2021/05/31 12:48:17;;;;;;;1.95;0.98;;;;;;;;;;3601521;39;20411;-72
2021/05/31 12:50:43;;;;;;;1.38;0.82;;;;;;;;;;3585042;39;20725;-72
2021/05/31 12:53:12;;;;;;;2.40;1.38;;;;;;;;;;3597410;39;20380;-72
2021/05/31 12:55:39;;;;;;;2.05;1.60;;;;;;;;;;3597331;40;20421;-71
2021/05/31 12:58:13;;;;;;;2.17;1.00;;;;;;;;;;3594526;39;20392;-72
2021/05/31 13:00:39;;;;;;;1.98;1.05;;;23.90;68.20;;;;;;3597460;39;20661;-72
2021/05/31 13:03:06;;;;;;;1.48;0.82;;;;;;;;;;3594263;39;20415;-72
2021/05/31 13:05:33;;;;;;;1.70;1.00;;;;;;;;;;3599577;39;20383;-71
2021/05/31 13:08:00;;;;;;;2.75;1.20;;;;;;;;;;3600237;39;20395;-72
2021/05/31 13:10:28;;;;;;;2.40;0.90;;;;;;;;;;3594563;39;20367;-72
2021/05/31 13:12:55;;;;;;;1.45;0.68;;;;;;;;;;3597656;39;20392;-72
2021/05/31 13:15:22;;;;;;;2.35;0.90;;;25.10;65.90;;;;;;3590373;39;20379;-71
2021/05/31 13:17:52;;;;;;;2.72;1.08;;;;;;;;;;3602027;39;20394;-71
2021/05/31 13:20:19;;;;;;;1.08;0.80;;;25.20;65.40;;;;;;3592166;39;20378;-72
2021/05/31 13:22:56;;;;;;;1.65;0.90;;;;;;;;;;3593418;39;20374;-72
2021/05/31 13:25:22;;;;;;;1.15;0.85;;;;;;;;;;3593309;39;20376;-72
2021/05/31 13:27:50;;;;;;;1.40;1.05;;;24.30;68.40;;;;;;3599192;39;20729;-71
2021/05/31 13:30:20;;;;;;;2.65;1.02;;;25.10;66.00;;;;;;3599000;39;20380;-72
2021/05/31 13:32:55;;;;;;;1.40;0.80;;;24.90;68.60;;;;;;3592028;39;20388;-72
2021/05/31 13:35:21;;;;;;;2.67;0.60;;;;;;;;;;3585617;40;20408;-71
2021/05/31 13:37:48;;;;;;;1.08;0.68;;;;;;;;;;3594183;39;20471;-71
2021/05/31 13:40:15;;;;;;;1.70;0.98;;;;;;;;;;3592675;39;20726;-72
2021/05/31 13:42:50;;;;;;;1.80;0.88;;;;;;;;;;3591682;39;20361;-72
2021/05/31 13:45:16;;;;;;;1.50;0.50;;;;;;;;;;3595298;39;20638;-72
2021/05/31 13:47:42;;;;;;;1.00;0.60;;;;;;;;;;3598176;39;20452;-72
2021/05/31 13:50:09;;;;;;;1.52;0.80;;;;;;;;;;3597013;39;20497;-72
2021/05/31 13:52:35;;;;;;;1.65;0.63;;;;;;;;;;3599143;39;20373;-72
2021/05/31 13:55:04;;;;;;;1.00;0.60;;;25.10;67.10;;;;;;3597152;39;20653;-71
2021/05/31 13:57:31;;;;;;;1.35;0.60;;;27.60;60.80;;;;;;3591856;39;20399;-72
2021/05/31 13:59:59;;;;;;;2.20;0.80;;;;;;;;;;3593025;39;20396;-72
2021/05/31 14:02:25;;;;;;;1.85;0.70;;;27.20;62.80;;;;;;3600491;39;20404;-72
2021/05/31 14:04:51;;;;;;;0.90;0.70;;;25.30;63.70;;;;;;3596938;39;20387;-71
2021/05/31 14:07:17;;;;;;;1.02;0.70;;;25.50;63.50;;;;;;3596902;39;20634;-72
2021/05/31 14:09:43;;;;;;;2.30;0.87;;;25.80;67.30;;;;;;3593785;39;20388;-71
2021/05/31 14:12:09;;;;;;;1.95;0.80;;;25.40;65.90;;;;;;3603945;39;20387;-71
2021/05/31 14:14:35;;;;;;;1.15;0.60;;;25.30;65.60;;;;;;3591363;39;20410;-72
2021/05/31 14:17:03;;;;;;;1.10;0.80;;;25.30;65.60;;;;;;3596993;39;20465;-71
2021/05/31 14:19:29;;;;;;;0.70;0.70;;;25.80;64.50;;;;;;3602533;39;20444;-72
2021/05/31 14:21:54;;;;;;;1.25;0.55;;;26.10;64.60;;;;;;3594784;39;20367;-71
2021/05/31 14:24:23;;;;;;;1.42;0.70;;;26.60;63.40;;;;;;3594414;39;20413;-71
2021/05/31 14:26:49;;;;;;;1.50;0.50;;;;;;;;;;3596997;39;20760;-72
2021/05/31 14:29:15;;;;;;;1.33;0.50;;;;;;;;;;3595701;39;20414;-72